sensor_id;sensor_type;location;lat;lon;timestamp;temperature;humidity
13848;DHT22;6994;49.752;6.094;2023-05-20T00:02:05;15.00;94.20
13848;DHT22;6994;49.752;6.094;2023-05-20T00:04:32;15.00;94.10
13848;DHT22;6994;49.752;6.094;2023-05-20T00:07:00;14.90;94.10
13848;DHT22;6994;49.752;6.094;2023-05-20T00:09:28;14.90;94.20
13848;DHT22;6994;49.752;6.094;2023-05-20T00:11:56;14.90;94.00
13848;DHT22;6994;49.752;6.094;2023-05-20T00:14:24;14.90;94.10
13848;DHT22;6994;49.752;6.094;2023-05-20T00:16:51;14.90;94.10
13848;DHT22;6994;49.752;6.094;2023-05-20T00:19:18;14.90;94.10
13848;DHT22;6994;49.752;6.094;2023-05-20T00:21:45;14.80;93.90
13848;DHT22;6994;49.752;6.094;2023-05-20T00:24:13;15.00;94.00
13848;DHT22;6994;49.752;6.094;2023-05-20T00:26:40;15.10;93.50
13848;DHT22;6994;49.752;6.094;2023-05-20T00:29:07;15.30;93.70
13848;DHT22;6994;49.752;6.094;2023-05-20T00:31:34;15.30;93.10
13848;DHT22;6994;49.752;6.094;2023-05-20T00:34:02;15.20;93.20
13848;DHT22;6994;49.752;6.094;2023-05-20T00:36:30;15.10;93.60
13848;DHT22;6994;49.752;6.094;2023-05-20T00:38:57;15.10;93.20
13848;DHT22;6994;49.752;6.094;2023-05-20T00:41:25;15.10;93.40
13848;DHT22;6994;49.752;6.094;2023-05-20T00:43:53;15.00;93.60
13848;DHT22;6994;49.752;6.094;2023-05-20T00:46:21;14.90;93.40
13848;DHT22;6994;49.752;6.094;2023-05-20T00:48:49;14.90;93.50
13848;DHT22;6994;49.752;6.094;2023-05-20T00:51:16;14.90;93.50
13848;DHT22;6994;49.752;6.094;2023-05-20T00:53:43;14.90;93.50
13848;DHT22;6994;49.752;6.094;2023-05-20T00:56:10;14.90;93.50
13848;DHT22;6994;49.752;6.094;2023-05-20T00:58:37;14.80;93.60
13848;DHT22;6994;49.752;6.094;2023-05-20T01:01:05;14.80;93.60
13848;DHT22;6994;49.752;6.094;2023-05-20T01:03:32;14.80;93.60
13848;DHT22;6994;49.752;6.094;2023-05-20T01:05:59;14.80;93.60
13848;DHT22;6994;49.752;6.094;2023-05-20T01:08:26;14.80;93.60
13848;DHT22;6994;49.752;6.094;2023-05-20T01:11:07;14.70;93.70
13848;DHT22;6994;49.752;6.094;2023-05-20T01:13:38;14.70;93.80
13848;DHT22;6994;49.752;6.094;2023-05-20T01:16:04;14.70;93.80
13848;DHT22;6994;49.752;6.094;2023-05-20T01:18:31;14.60;93.80
13848;DHT22;6994;49.752;6.094;2023-05-20T01:20:58;14.60;93.80
13848;DHT22;6994;49.752;6.094;2023-05-20T01:23:31;14.60;93.90
13848;DHT22;6994;49.752;6.094;2023-05-20T01:25:52;14.60;94.10
13848;DHT22;6994;49.752;6.094;2023-05-20T01:28:20;14.60;94.30
13848;DHT22;6994;49.752;6.094;2023-05-20T01:30:48;14.50;94.20
13848;DHT22;6994;49.752;6.094;2023-05-20T01:33:14;14.50;94.10
13848;DHT22;6994;49.752;6.094;2023-05-20T01:35:41;14.50;94.30
13848;DHT22;6994;49.752;6.094;2023-05-20T01:38:09;14.50;94.30
13848;DHT22;6994;49.752;6.094;2023-05-20T01:40:36;14.50;94.20
13848;DHT22;6994;49.752;6.094;2023-05-20T01:43:03;14.50;94.20
13848;DHT22;6994;49.752;6.094;2023-05-20T01:45:31;14.70;94.50
13848;DHT22;6994;49.752;6.094;2023-05-20T01:47:59;14.70;94.20
13848;DHT22;6994;49.752;6.094;2023-05-20T01:50:27;14.70;94.10
13848;DHT22;6994;49.752;6.094;2023-05-20T01:52:55;14.90;94.20
13848;DHT22;6994;49.752;6.094;2023-05-20T01:55:23;14.90;93.90
13848;DHT22;6994;49.752;6.094;2023-05-20T01:57:51;15.00;94.00
13848;DHT22;6994;49.752;6.094;2023-05-20T02:00:19;15.00;94.00
13848;DHT22;6994;49.752;6.094;2023-05-20T02:02:46;15.00;94.00
13848;DHT22;6994;49.752;6.094;2023-05-20T02:05:13;14.90;94.00
13848;DHT22;6994;49.752;6.094;2023-05-20T02:07:40;14.70;94.30
13848;DHT22;6994;49.752;6.094;2023-05-20T02:10:08;14.60;94.30
13848;DHT22;6994;49.752;6.094;2023-05-20T02:12:35;14.50;94.30
13848;DHT22;6994;49.752;6.094;2023-05-20T02:15:02;14.40;94.30
13848;DHT22;6994;49.752;6.094;2023-05-20T02:17:29;14.40;94.30
13848;DHT22;6994;49.752;6.094;2023-05-20T02:19:56;14.30;94.50
13848;DHT22;6994;49.752;6.094;2023-05-20T02:22:24;14.30;94.50
13848;DHT22;6994;49.752;6.094;2023-05-20T02:24:51;14.20;94.60
13848;DHT22;6994;49.752;6.094;2023-05-20T02:27:18;14.40;94.80
13848;DHT22;6994;49.752;6.094;2023-05-20T02:29:45;14.50;94.60
13848;DHT22;6994;49.752;6.094;2023-05-20T02:32:12;14.40;94.60
13848;DHT22;6994;49.752;6.094;2023-05-20T02:34:40;14.40;94.60
13848;DHT22;6994;49.752;6.094;2023-05-20T02:37:07;14.30;94.60
13848;DHT22;6994;49.752;6.094;2023-05-20T02:39:34;14.20;94.80
13848;DHT22;6994;49.752;6.094;2023-05-20T02:42:02;14.10;95.00
13848;DHT22;6994;49.752;6.094;2023-05-20T02:44:30;14.10;95.00
13848;DHT22;6994;49.752;6.094;2023-05-20T02:46:58;14.00;94.90
13848;DHT22;6994;49.752;6.094;2023-05-20T02:49:27;14.00;95.00
13848;DHT22;6994;49.752;6.094;2023-05-20T02:51:54;14.00;95.00
13848;DHT22;6994;49.752;6.094;2023-05-20T02:54:21;14.00;95.30
13848;DHT22;6994;49.752;6.094;2023-05-20T02:56:48;13.90;95.30
13848;DHT22;6994;49.752;6.094;2023-05-20T02:59:15;13.90;95.30
13848;DHT22;6994;49.752;6.094;2023-05-20T03:01:43;13.90;95.40
13848;DHT22;6994;49.752;6.094;2023-05-20T03:04:10;13.90;95.30
13848;DHT22;6994;49.752;6.094;2023-05-20T03:06:37;13.90;95.60
13848;DHT22;6994;49.752;6.094;2023-05-20T03:09:05;14.10;95.30
13848;DHT22;6994;49.752;6.094;2023-05-20T03:11:32;14.10;95.30
13848;DHT22;6994;49.752;6.094;2023-05-20T03:13:59;14.10;95.30
13848;DHT22;6994;49.752;6.094;2023-05-20T03:16:27;14.00;95.30
13848;DHT22;6994;49.752;6.094;2023-05-20T03:18:54;14.20;95.90
13848;DHT22;6994;49.752;6.094;2023-05-20T03:21:21;14.20;95.30
13848;DHT22;6994;49.752;6.094;2023-05-20T03:23:48;14.40;95.30
13848;DHT22;6994;49.752;6.094;2023-05-20T03:26:15;14.40;95.10
13848;DHT22;6994;49.752;6.094;2023-05-20T03:28:43;14.30;95.10
13848;DHT22;6994;49.752;6.094;2023-05-20T03:31:10;14.20;95.30
13848;DHT22;6994;49.752;6.094;2023-05-20T03:33:38;14.00;95.70
13848;DHT22;6994;49.752;6.094;2023-05-20T03:36:06;14.00;95.80
13848;DHT22;6994;49.752;6.094;2023-05-20T03:38:34;13.90;96.00
13848;DHT22;6994;49.752;6.094;2023-05-20T03:41:02;13.80;96.20
13848;DHT22;6994;49.752;6.094;2023-05-20T03:43:30;13.80;96.20
13848;DHT22;6994;49.752;6.094;2023-05-20T03:45:58;13.70;96.30
13848;DHT22;6994;49.752;6.094;2023-05-20T03:48:25;13.70;96.30
13848;DHT22;6994;49.752;6.094;2023-05-20T03:50:52;13.70;96.40
13848;DHT22;6994;49.752;6.094;2023-05-20T03:53:19;13.70;96.60
13848;DHT22;6994;49.752;6.094;2023-05-20T03:55:47;13.90;96.80
13848;DHT22;6994;49.752;6.094;2023-05-20T03:58:14;13.90;96.60
13848;DHT22;6994;49.752;6.094;2023-05-20T04:00:41;13.80;96.50
13848;DHT22;6994;49.752;6.094;2023-05-20T04:03:08;13.80;96.60
13848;DHT22;6994;49.752;6.094;2023-05-20T04:05:35;13.70;96.70
13848;DHT22;6994;49.752;6.094;2023-05-20T04:08:03;13.70;96.80
13848;DHT22;6994;49.752;6.094;2023-05-20T04:10:31;13.60;97.20
13848;DHT22;6994;49.752;6.094;2023-05-20T04:12:59;13.60;97.20
13848;DHT22;6994;49.752;6.094;2023-05-20T04:15:26;13.60;97.20
13848;DHT22;6994;49.752;6.094;2023-05-20T04:17:54;13.60;97.10
13848;DHT22;6994;49.752;6.094;2023-05-20T04:20:22;13.60;97.20
13848;DHT22;6994;49.752;6.094;2023-05-20T04:22:50;13.60;97.20
13848;DHT22;6994;49.752;6.094;2023-05-20T04:25:17;13.60;97.20
13848;DHT22;6994;49.752;6.094;2023-05-20T04:27:44;13.60;97.20
13848;DHT22;6994;49.752;6.094;2023-05-20T04:30:11;13.70;97.20
13848;DHT22;6994;49.752;6.094;2023-05-20T04:32:38;13.70;97.20
13848;DHT22;6994;49.752;6.094;2023-05-20T04:35:06;13.70;97.30
13848;DHT22;6994;49.752;6.094;2023-05-20T04:37:34;13.70;97.30
13848;DHT22;6994;49.752;6.094;2023-05-20T04:40:03;13.70;97.30
13848;DHT22;6994;49.752;6.094;2023-05-20T04:42:30;13.70;97.30
13848;DHT22;6994;49.752;6.094;2023-05-20T04:44:58;13.80;97.40
13848;DHT22;6994;49.752;6.094;2023-05-20T04:47:29;13.80;97.50
13848;DHT22;6994;49.752;6.094;2023-05-20T04:49:53;13.80;97.50
13848;DHT22;6994;49.752;6.094;2023-05-20T04:52:20;13.80;97.50
13848;DHT22;6994;49.752;6.094;2023-05-20T04:54:47;13.90;97.50
13848;DHT22;6994;49.752;6.094;2023-05-20T04:57:14;14.10;97.40
13848;DHT22;6994;49.752;6.094;2023-05-20T04:59:42;14.10;97.20
13848;DHT22;6994;49.752;6.094;2023-05-20T05:02:09;14.20;97.20
13848;DHT22;6994;49.752;6.094;2023-05-20T05:04:36;14.40;97.10
13848;DHT22;6994;49.752;6.094;2023-05-20T05:07:03;14.70;96.80
13848;DHT22;6994;49.752;6.094;2023-05-20T05:09:30;14.70;97.00
13848;DHT22;6994;49.752;6.094;2023-05-20T05:11:58;14.60;97.10
13848;DHT22;6994;49.752;6.094;2023-05-20T05:14:26;14.50;97.30
13848;DHT22;6994;49.752;6.094;2023-05-20T05:16:54;14.50;97.50
13848;DHT22;6994;49.752;6.094;2023-05-20T05:19:22;14.50;97.70
13848;DHT22;6994;49.752;6.094;2023-05-20T05:21:50;14.50;97.70
13848;DHT22;6994;49.752;6.094;2023-05-20T05:24:17;14.50;98.00
13848;DHT22;6994;49.752;6.094;2023-05-20T05:26:44;14.50;97.90
13848;DHT22;6994;49.752;6.094;2023-05-20T05:29:11;14.70;97.20
13848;DHT22;6994;49.752;6.094;2023-05-20T05:31:38;14.70;97.20
13848;DHT22;6994;49.752;6.094;2023-05-20T05:34:06;14.90;97.50
13848;DHT22;6994;49.752;6.094;2023-05-20T05:36:33;14.90;97.50
13848;DHT22;6994;49.752;6.094;2023-05-20T05:39:01;14.80;97.40
13848;DHT22;6994;49.752;6.094;2023-05-20T05:41:29;14.70;97.50
13848;DHT22;6994;49.752;6.094;2023-05-20T05:43:57;14.60;97.60
13848;DHT22;6994;49.752;6.094;2023-05-20T05:46:24;14.60;97.60
13848;DHT22;6994;49.752;6.094;2023-05-20T05:48:51;14.50;97.70
13848;DHT22;6994;49.752;6.094;2023-05-20T05:51:19;14.40;98.10
13848;DHT22;6994;49.752;6.094;2023-05-20T05:53:46;14.40;98.10
13848;DHT22;6994;49.752;6.094;2023-05-20T05:56:13;14.40;98.10
13848;DHT22;6994;49.752;6.094;2023-05-20T05:58:41;14.40;98.10
13848;DHT22;6994;49.752;6.094;2023-05-20T06:01:08;14.50;98.20
13848;DHT22;6994;49.752;6.094;2023-05-20T06:03:35;14.50;98.00
13848;DHT22;6994;49.752;6.094;2023-05-20T06:06:02;14.70;98.40
13848;DHT22;6994;49.752;6.094;2023-05-20T06:08:29;14.70;98.20
13848;DHT22;6994;49.752;6.094;2023-05-20T06:10:57;14.60;98.20
13848;DHT22;6994;49.752;6.094;2023-05-20T06:13:25;14.60;98.40
13848;DHT22;6994;49.752;6.094;2023-05-20T06:15:53;14.50;98.40
13848;DHT22;6994;49.752;6.094;2023-05-20T06:18:21;14.50;98.60
13848;DHT22;6994;49.752;6.094;2023-05-20T06:20:58;14.50;98.60
13848;DHT22;6994;49.752;6.094;2023-05-20T06:23:25;14.50;98.90
13848;DHT22;6994;49.752;6.094;2023-05-20T06:25:56;14.50;99.10
13848;DHT22;6994;49.752;6.094;2023-05-20T06:28:19;14.50;99.10
13848;DHT22;6994;49.752;6.094;2023-05-20T06:30:47;14.50;99.40
13848;DHT22;6994;49.752;6.094;2023-05-20T06:33:14;14.50;99.70
13848;DHT22;6994;49.752;6.094;2023-05-20T06:35:41;14.50;99.80
13848;DHT22;6994;49.752;6.094;2023-05-20T06:38:09;14.60;99.60
13848;DHT22;6994;49.752;6.094;2023-05-20T06:40:36;14.60;99.90
13848;DHT22;6994;49.752;6.094;2023-05-20T06:43:03;14.70;99.50
13848;DHT22;6994;49.752;6.094;2023-05-20T06:45:31;14.70;99.60
13848;DHT22;6994;49.752;6.094;2023-05-20T06:47:58;15.00;99.90
13848;DHT22;6994;49.752;6.094;2023-05-20T06:50:25;15.10;99.90
13848;DHT22;6994;49.752;6.094;2023-05-20T06:52:52;15.20;99.90
13848;DHT22;6994;49.752;6.094;2023-05-20T06:55:19;15.20;99.80
13848;DHT22;6994;49.752;6.094;2023-05-20T06:57:47;15.20;99.70
13848;DHT22;6994;49.752;6.094;2023-05-20T07:00:14;15.30;99.90
13848;DHT22;6994;49.752;6.094;2023-05-20T07:02:41;15.40;99.90
13848;DHT22;6994;49.752;6.094;2023-05-20T07:05:08;15.50;99.90
13848;DHT22;6994;49.752;6.094;2023-05-20T07:07:36;15.70;99.90
13848;DHT22;6994;49.752;6.094;2023-05-20T07:10:04;15.70;99.90
13848;DHT22;6994;49.752;6.094;2023-05-20T07:12:31;15.80;99.70
13848;DHT22;6994;49.752;6.094;2023-05-20T07:14:58;15.90;99.80
13848;DHT22;6994;49.752;6.094;2023-05-20T07:17:25;16.00;99.70
13848;DHT22;6994;49.752;6.094;2023-05-20T07:19:52;16.10;99.80
13848;DHT22;6994;49.752;6.094;2023-05-20T07:22:19;16.50;99.20
13848;DHT22;6994;49.752;6.094;2023-05-20T07:24:47;16.70;98.90
13848;DHT22;6994;49.752;6.094;2023-05-20T07:27:14;16.80;98.90
13848;DHT22;6994;49.752;6.094;2023-05-20T07:29:41;16.80;98.60
13848;DHT22;6994;49.752;6.094;2023-05-20T07:32:09;17.20;98.50
13848;DHT22;6994;49.752;6.094;2023-05-20T07:34:37;17.30;97.70
13848;DHT22;6994;49.752;6.094;2023-05-20T07:37:04;17.30;97.70
13848;DHT22;6994;49.752;6.094;2023-05-20T07:39:31;17.30;97.90
13848;DHT22;6994;49.752;6.094;2023-05-20T07:41:59;17.30;98.10
13848;DHT22;6994;49.752;6.094;2023-05-20T07:44:26;17.40;98.20
13848;DHT22;6994;49.752;6.094;2023-05-20T07:46:54;17.40;97.70
13848;DHT22;6994;49.752;6.094;2023-05-20T07:49:20;17.40;97.80
13848;DHT22;6994;49.752;6.094;2023-05-20T07:51:47;17.30;98.00
13848;DHT22;6994;49.752;6.094;2023-05-20T07:54:15;17.30;98.30
13848;DHT22;6994;49.752;6.094;2023-05-20T07:56:42;17.40;98.40
13848;DHT22;6994;49.752;6.094;2023-05-20T07:59:09;17.40;98.00
13848;DHT22;6994;49.752;6.094;2023-05-20T08:01:36;17.40;98.40
13848;DHT22;6994;49.752;6.094;2023-05-20T08:04:04;17.40;98.40
13848;DHT22;6994;49.752;6.094;2023-05-20T08:06:31;17.40;98.40
13848;DHT22;6994;49.752;6.094;2023-05-20T08:08:59;17.40;98.50
13848;DHT22;6994;49.752;6.094;2023-05-20T08:11:26;17.40;98.80
13848;DHT22;6994;49.752;6.094;2023-05-20T08:13:53;17.40;98.70
13848;DHT22;6994;49.752;6.094;2023-05-20T08:16:20;17.40;98.50
13848;DHT22;6994;49.752;6.094;2023-05-20T08:18:47;17.40;98.50
13848;DHT22;6994;49.752;6.094;2023-05-20T08:21:15;17.30;98.50
13848;DHT22;6994;49.752;6.094;2023-05-20T08:23:42;17.50;98.60
13848;DHT22;6994;49.752;6.094;2023-05-20T08:26:09;17.60;98.80
13848;DHT22;6994;49.752;6.094;2023-05-20T08:28:36;17.80;98.60
13848;DHT22;6994;49.752;6.094;2023-05-20T08:31:04;18.00;98.80
13848;DHT22;6994;49.752;6.094;2023-05-20T08:33:31;18.00;98.90
13848;DHT22;6994;49.752;6.094;2023-05-20T08:35:58;18.00;98.80
13848;DHT22;6994;49.752;6.094;2023-05-20T08:38:26;17.80;98.80
13848;DHT22;6994;49.752;6.094;2023-05-20T08:40:54;17.80;98.70
13848;DHT22;6994;49.752;6.094;2023-05-20T08:43:22;17.70;98.60
13848;DHT22;6994;49.752;6.094;2023-05-20T08:45:49;17.70;98.60
13848;DHT22;6994;49.752;6.094;2023-05-20T08:48:16;17.70;98.70
13848;DHT22;6994;49.752;6.094;2023-05-20T08:50:49;17.70;98.80
13848;DHT22;6994;49.752;6.094;2023-05-20T08:53:11;17.90;99.40
13848;DHT22;6994;49.752;6.094;2023-05-20T08:55:41;18.00;98.70
13848;DHT22;6994;49.752;6.094;2023-05-20T08:58:08;18.10;99.30
13848;DHT22;6994;49.752;6.094;2023-05-20T09:00:35;18.20;99.30
13848;DHT22;6994;49.752;6.094;2023-05-20T09:03:03;18.20;99.40
13848;DHT22;6994;49.752;6.094;2023-05-20T09:05:30;18.60;99.00
13848;DHT22;6994;49.752;6.094;2023-05-20T09:08:04;18.70;98.60
13848;DHT22;6994;49.752;6.094;2023-05-20T09:10:31;18.70;98.60
13848;DHT22;6994;49.752;6.094;2023-05-20T09:13:01;19.10;98.10
13848;DHT22;6994;49.752;6.094;2023-05-20T09:15:29;19.40;98.50
13848;DHT22;6994;49.752;6.094;2023-05-20T09:20:27;19.80;97.00
13848;DHT22;6994;49.752;6.094;2023-05-20T09:22:58;20.10;97.20
13848;DHT22;6994;49.752;6.094;2023-05-20T09:25:22;20.40;97.20
13848;DHT22;6994;49.752;6.094;2023-05-20T09:27:49;20.40;97.10
13848;DHT22;6994;49.752;6.094;2023-05-20T09:30:19;20.80;97.00
13848;DHT22;6994;49.752;6.094;2023-05-20T09:32:53;20.80;96.70
13848;DHT22;6994;49.752;6.094;2023-05-20T09:35:20;20.90;96.50
13848;DHT22;6994;49.752;6.094;2023-05-20T09:37:47;20.80;96.40
13848;DHT22;6994;49.752;6.094;2023-05-20T09:40:14;20.80;96.60
13848;DHT22;6994;49.752;6.094;2023-05-20T09:42:42;20.80;96.30
13848;DHT22;6994;49.752;6.094;2023-05-20T09:45:08;20.80;96.80
13848;DHT22;6994;49.752;6.094;2023-05-20T09:47:38;20.80;96.80
13848;DHT22;6994;49.752;6.094;2023-05-20T09:50:05;21.20;95.90
13848;DHT22;6994;49.752;6.094;2023-05-20T09:52:36;21.30;95.40
13848;DHT22;6994;49.752;6.094;2023-05-20T09:55:01;21.20;95.60
13848;DHT22;6994;49.752;6.094;2023-05-20T09:57:29;21.50;95.90
13848;DHT22;6994;49.752;6.094;2023-05-20T09:59:54;21.40;95.20
13848;DHT22;6994;49.752;6.094;2023-05-20T10:02:21;21.30;95.30
13848;DHT22;6994;49.752;6.094;2023-05-20T10:04:49;21.20;95.50
13848;DHT22;6994;49.752;6.094;2023-05-20T10:07:32;21.20;95.80
13848;DHT22;6994;49.752;6.094;2023-05-20T10:10:02;21.40;96.50
13848;DHT22;6994;49.752;6.094;2023-05-20T10:12:38;22.00;95.80
13848;DHT22;6994;49.752;6.094;2023-05-20T10:20:05;22.60;95.00
13848;DHT22;6994;49.752;6.094;2023-05-20T10:22:30;23.40;94.10
13848;DHT22;6994;49.752;6.094;2023-05-20T10:24:58;23.60;92.80
13848;DHT22;6994;49.752;6.094;2023-05-20T10:27:26;23.70;92.40
13848;DHT22;6994;49.752;6.094;2023-05-20T10:29:56;23.70;92.40
13848;DHT22;6994;49.752;6.094;2023-05-20T10:32:28;23.70;93.30
13848;DHT22;6994;49.752;6.094;2023-05-20T10:34:51;23.50;92.40
13848;DHT22;6994;49.752;6.094;2023-05-20T10:37:22;23.40;91.90
13848;DHT22;6994;49.752;6.094;2023-05-20T10:39:49;23.40;91.90
13848;DHT22;6994;49.752;6.094;2023-05-20T10:42:16;23.70;92.50
13848;DHT22;6994;49.752;6.094;2023-05-20T10:44:44;23.50;92.20
13848;DHT22;6994;49.752;6.094;2023-05-20T10:47:11;23.40;93.00
13848;DHT22;6994;49.752;6.094;2023-05-20T10:49:44;23.50;93.80
13848;DHT22;6994;49.752;6.094;2023-05-20T10:52:14;23.80;93.30
13848;DHT22;6994;49.752;6.094;2023-05-20T10:54:47;24.60;93.00
13848;DHT22;6994;49.752;6.094;2023-05-20T10:57:14;24.90;91.90
13848;DHT22;6994;49.752;6.094;2023-05-20T10:59:41;25.00;90.60
13848;DHT22;6994;49.752;6.094;2023-05-20T11:02:08;25.00;90.20
13848;DHT22;6994;49.752;6.094;2023-05-20T11:04:35;25.00;91.20
13848;DHT22;6994;49.752;6.094;2023-05-20T11:07:02;25.10;90.60
13848;DHT22;6994;49.752;6.094;2023-05-20T11:09:30;25.10;90.70
13848;DHT22;6994;49.752;6.094;2023-05-20T11:11:57;25.20;90.80
13848;DHT22;6994;49.752;6.094;2023-05-20T11:14:26;25.30;89.80
13848;DHT22;6994;49.752;6.094;2023-05-20T11:16:51;25.60;88.90
13848;DHT22;6994;49.752;6.094;2023-05-20T11:19:19;25.20;88.40
13848;DHT22;6994;49.752;6.094;2023-05-20T11:21:47;25.20;88.40
13848;DHT22;6994;49.752;6.094;2023-05-20T11:24:20;25.00;89.20
13848;DHT22;6994;49.752;6.094;2023-05-20T11:26:41;24.60;88.10
13848;DHT22;6994;49.752;6.094;2023-05-20T11:29:08;24.60;88.10
13848;DHT22;6994;49.752;6.094;2023-05-20T11:31:36;24.70;89.80
13848;DHT22;6994;49.752;6.094;2023-05-20T11:34:02;25.00;90.00
13848;DHT22;6994;49.752;6.094;2023-05-20T11:36:30;25.60;89.70
13848;DHT22;6994;49.752;6.094;2023-05-20T11:38:58;26.10;89.20
13848;DHT22;6994;49.752;6.094;2023-05-20T11:41:28;26.30;88.00
13848;DHT22;6994;49.752;6.094;2023-05-20T11:43:57;27.00;84.80
13848;DHT22;6994;49.752;6.094;2023-05-20T11:46:21;27.20;84.50
13848;DHT22;6994;49.752;6.094;2023-05-20T11:48:54;27.40;84.30
13848;DHT22;6994;49.752;6.094;2023-05-20T11:51:27;27.50;85.20
13848;DHT22;6994;49.752;6.094;2023-05-20T11:54:00;27.60;85.60
13848;DHT22;6994;49.752;6.094;2023-05-20T11:56:28;27.70;81.60
13848;DHT22;6994;49.752;6.094;2023-05-20T11:58:55;27.40;80.60
13848;DHT22;6994;49.752;6.094;2023-05-20T12:01:22;27.50;81.90
13848;DHT22;6994;49.752;6.094;2023-05-20T12:03:49;27.00;82.20
13848;DHT22;6994;49.752;6.094;2023-05-20T12:06:16;27.10;82.30
13848;DHT22;6994;49.752;6.094;2023-05-20T12:08:43;26.60;81.70
13848;DHT22;6994;49.752;6.094;2023-05-20T12:11:11;26.30;84.20
13848;DHT22;6994;49.752;6.094;2023-05-20T12:13:38;26.20;86.70
13848;DHT22;6994;49.752;6.094;2023-05-20T12:16:05;26.10;85.20
13848;DHT22;6994;49.752;6.094;2023-05-20T12:18:32;25.90;84.90
13848;DHT22;6994;49.752;6.094;2023-05-20T12:21:00;26.20;87.30
13848;DHT22;6994;49.752;6.094;2023-05-20T12:23:28;26.20;87.20
13848;DHT22;6994;49.752;6.094;2023-05-20T12:25:55;26.80;85.50
13848;DHT22;6994;49.752;6.094;2023-05-20T12:28:23;27.70;83.80
13848;DHT22;6994;49.752;6.094;2023-05-20T12:30:51;28.10;81.30
13848;DHT22;6994;49.752;6.094;2023-05-20T12:33:18;28.10;81.30
13848;DHT22;6994;49.752;6.094;2023-05-20T12:35:45;28.20;81.10
13848;DHT22;6994;49.752;6.094;2023-05-20T12:38:12;28.30;81.50
13848;DHT22;6994;49.752;6.094;2023-05-20T12:40:40;29.50;81.30
13848;DHT22;6994;49.752;6.094;2023-05-20T12:43:07;30.30;78.80
13848;DHT22;6994;49.752;6.094;2023-05-20T12:45:34;32.00;73.30
13848;DHT22;6994;49.752;6.094;2023-05-20T12:48:01;32.40;72.50
13848;DHT22;6994;49.752;6.094;2023-05-20T12:50:28;32.50;70.60
13848;DHT22;6994;49.752;6.094;2023-05-20T12:52:56;32.60;66.90
13848;DHT22;6994;49.752;6.094;2023-05-20T12:55:24;30.50;65.80
13848;DHT22;6994;49.752;6.094;2023-05-20T12:57:51;30.50;65.70
13848;DHT22;6994;49.752;6.094;2023-05-20T13:00:18;29.40;70.40
13848;DHT22;6994;49.752;6.094;2023-05-20T13:02:45;29.20;74.50
13848;DHT22;6994;49.752;6.094;2023-05-20T13:05:12;30.70;71.50
13848;DHT22;6994;49.752;6.094;2023-05-20T13:07:40;31.40;70.30
13848;DHT22;6994;49.752;6.094;2023-05-20T13:10:07;32.10;68.90
13848;DHT22;6994;49.752;6.094;2023-05-20T13:12:34;32.80;66.00
13848;DHT22;6994;49.752;6.094;2023-05-20T13:15:01;33.10;66.10
13848;DHT22;6994;49.752;6.094;2023-05-20T13:17:28;33.40;65.60
13848;DHT22;6994;49.752;6.094;2023-05-20T13:19:56;33.90;62.10
13848;DHT22;6994;49.752;6.094;2023-05-20T13:22:24;33.90;62.00
13848;DHT22;6994;49.752;6.094;2023-05-20T13:24:51;34.20;62.30
13848;DHT22;6994;49.752;6.094;2023-05-20T13:27:19;35.20;60.30
13848;DHT22;6994;49.752;6.094;2023-05-20T13:29:46;35.20;60.20
13848;DHT22;6994;49.752;6.094;2023-05-20T13:32:13;35.60;58.40
13848;DHT22;6994;49.752;6.094;2023-05-20T13:34:40;35.50;57.40
13848;DHT22;6994;49.752;6.094;2023-05-20T13:37:08;35.70;56.10
13848;DHT22;6994;49.752;6.094;2023-05-20T13:39:35;35.00;57.70
13848;DHT22;6994;49.752;6.094;2023-05-20T13:42:02;35.30;54.90
13848;DHT22;6994;49.752;6.094;2023-05-20T13:44:29;34.70;56.90
13848;DHT22;6994;49.752;6.094;2023-05-20T13:46:57;34.60;57.80
13848;DHT22;6994;49.752;6.094;2023-05-20T13:49:25;34.80;56.80
13848;DHT22;6994;49.752;6.094;2023-05-20T13:51:53;34.80;57.60
13848;DHT22;6994;49.752;6.094;2023-05-20T13:54:21;35.00;58.40
13848;DHT22;6994;49.752;6.094;2023-05-20T13:56:48;35.00;58.30
13848;DHT22;6994;49.752;6.094;2023-05-20T13:59:15;35.20;56.70
13848;DHT22;6994;49.752;6.094;2023-05-20T14:01:43;35.40;56.30
13848;DHT22;6994;49.752;6.094;2023-05-20T14:04:10;35.70;54.00
13848;DHT22;6994;49.752;6.094;2023-05-20T14:06:37;35.40;55.10
13848;DHT22;6994;49.752;6.094;2023-05-20T14:09:05;35.30;55.30
13848;DHT22;6994;49.752;6.094;2023-05-20T14:11:31;35.50;54.30
13848;DHT22;6994;49.752;6.094;2023-05-20T14:13:59;35.10;54.50
13848;DHT22;6994;49.752;6.094;2023-05-20T14:16:27;34.60;54.70
13848;DHT22;6994;49.752;6.094;2023-05-20T14:18:55;34.10;55.70
13848;DHT22;6994;49.752;6.094;2023-05-20T14:21:23;33.40;55.30
13848;DHT22;6994;49.752;6.094;2023-05-20T14:23:51;33.40;55.20
13848;DHT22;6994;49.752;6.094;2023-05-20T14:26:18;32.40;55.40
13848;DHT22;6994;49.752;6.094;2023-05-20T14:28:45;31.60;57.70
13848;DHT22;6994;49.752;6.094;2023-05-20T14:31:12;31.70;59.30
13848;DHT22;6994;49.752;6.094;2023-05-20T14:33:39;33.00;56.80
13848;DHT22;6994;49.752;6.094;2023-05-20T14:36:07;33.90;56.70
13848;DHT22;6994;49.752;6.094;2023-05-20T14:38:34;33.70;56.20
13848;DHT22;6994;49.752;6.094;2023-05-20T14:41:01;33.10;57.00
13848;DHT22;6994;49.752;6.094;2023-05-20T14:43:28;32.20;57.10
13848;DHT22;6994;49.752;6.094;2023-05-20T14:45:56;30.20;60.30
13848;DHT22;6994;49.752;6.094;2023-05-20T14:48:24;30.10;60.20
13848;DHT22;6994;49.752;6.094;2023-05-20T14:50:52;29.60;62.90
13848;DHT22;6994;49.752;6.094;2023-05-20T14:53:19;29.50;62.80
13848;DHT22;6994;49.752;6.094;2023-05-20T14:55:46;30.40;61.80
13848;DHT22;6994;49.752;6.094;2023-05-20T14:58:13;31.50;60.90
13848;DHT22;6994;49.752;6.094;2023-05-20T15:00:40;32.60;59.30
13848;DHT22;6994;49.752;6.094;2023-05-20T15:03:08;33.20;58.20
13848;DHT22;6994;49.752;6.094;2023-05-20T15:05:35;34.90;57.30
13848;DHT22;6994;49.752;6.094;2023-05-20T15:08:02;35.70;57.00
13848;DHT22;6994;49.752;6.094;2023-05-20T15:10:29;37.50;52.40
13848;DHT22;6994;49.752;6.094;2023-05-20T15:12:56;37.70;52.00
13848;DHT22;6994;49.752;6.094;2023-05-20T15:15:24;37.70;51.10
13848;DHT22;6994;49.752;6.094;2023-05-20T15:17:51;37.90;51.00
13848;DHT22;6994;49.752;6.094;2023-05-20T15:20:19;38.30;50.30
13848;DHT22;6994;49.752;6.094;2023-05-20T15:22:46;38.30;50.30
13848;DHT22;6994;49.752;6.094;2023-05-20T15:25:13;38.40;50.40
13848;DHT22;6994;49.752;6.094;2023-05-20T15:27:41;38.50;49.50
13848;DHT22;6994;49.752;6.094;2023-05-20T15:30:08;39.50;47.10
13848;DHT22;6994;49.752;6.094;2023-05-20T15:32:35;39.00;48.00
13848;DHT22;6994;49.752;6.094;2023-05-20T15:35:02;39.80;47.90
13848;DHT22;6994;49.752;6.094;2023-05-20T15:37:29;39.20;47.20
13848;DHT22;6994;49.752;6.094;2023-05-20T15:39:56;38.60;46.90
13848;DHT22;6994;49.752;6.094;2023-05-20T15:42:24;36.20;48.30
13848;DHT22;6994;49.752;6.094;2023-05-20T15:44:51;33.70;50.90
13848;DHT22;6994;49.752;6.094;2023-05-20T15:47:18;31.50;54.50
13848;DHT22;6994;49.752;6.094;2023-05-20T15:49:46;28.80;58.70
13848;DHT22;6994;49.752;6.094;2023-05-20T15:52:14;28.60;59.80
13848;DHT22;6994;49.752;6.094;2023-05-20T15:54:42;28.70;60.00